createdAt,value
2019-03-28T00:01:21.862Z,77.71
2019-03-28T00:03:52.608Z,77.37
2019-03-28T00:06:23.544Z,77.68
2019-03-28T00:08:54.271Z,77.70
2019-03-28T00:11:25.057Z,77.37
2019-03-28T00:13:55.752Z,77.37
2019-03-28T00:16:29.103Z,76.98
2019-03-28T00:18:59.845Z,76.79
2019-03-28T00:21:30.535Z,76.61
2019-03-28T00:24:17.982Z,76.53
2019-03-28T00:26:50.392Z,76.37
2019-03-28T00:29:21.061Z,76.71
2019-03-28T00:31:51.830Z,76.14
2019-03-28T00:34:31.394Z,76.54
2019-03-28T00:37:08.975Z,76.63
2019-03-28T00:39:49.303Z,76.80
2019-03-28T00:42:21.054Z,76.68
2019-03-28T00:45:03.156Z,76.41
2019-03-28T00:47:38.657Z,76.45
2019-03-28T00:50:15.723Z,76.50
2019-03-28T00:53:10.305Z,76.61
2019-03-28T00:55:49.637Z,76.58
2019-03-28T00:58:23.487Z,76.75
2019-03-28T01:00:54.435Z,76.69
2019-03-28T01:03:25.280Z,76.72
2019-03-28T01:05:55.972Z,76.77
2019-03-28T01:08:26.835Z,76.50
2019-03-28T01:10:58.656Z,76.76
2019-03-28T01:13:29.375Z,76.50
2019-03-28T01:16:00.139Z,76.29
2019-03-28T01:18:30.891Z,76.36
2019-03-28T01:21:01.604Z,76.33
2019-03-28T01:23:32.300Z,76.42
2019-03-28T01:26:03.058Z,76.37
2019-03-28T01:28:35.011Z,76.58
2019-03-28T01:31:05.710Z,76.71
2019-03-28T01:33:36.494Z,76.96
2019-03-28T01:36:07.195Z,77.28
2019-03-28T01:38:37.903Z,77.76
2019-03-28T01:41:08.668Z,77.54
2019-03-28T01:43:40.452Z,78.24
2019-03-28T01:46:11.247Z,78.55
2019-03-28T01:48:41.947Z,78.43
2019-03-28T01:51:12.689Z,78.75
2019-03-28T01:53:43.494Z,78.78
2019-03-28T01:56:14.221Z,78.93
2019-03-28T01:58:44.911Z,78.64
2019-03-28T02:01:15.625Z,78.99
2019-03-28T02:03:46.459Z,79.48
2019-03-28T02:06:18.071Z,79.86
2019-03-28T02:08:50.001Z,79.87
2019-03-28T02:11:21.725Z,80.35
2019-03-28T02:13:52.561Z,80.46
2019-03-28T02:16:23.299Z,80.27
2019-03-28T02:18:54.190Z,80.62
2019-03-28T02:21:24.919Z,80.48
2019-03-28T02:23:55.661Z,80.37
2019-03-28T02:26:26.491Z,80.60
2019-03-28T02:28:57.274Z,80.72
2019-03-28T02:31:28.079Z,80.39
2019-03-28T02:33:58.928Z,80.62
2019-03-28T02:36:29.736Z,80.84
2019-03-28T02:39:00.507Z,80.61
2019-03-28T02:41:32.940Z,80.89
2019-03-28T02:44:03.668Z,81.09
2019-03-28T02:46:34.818Z,81.05
2019-03-28T02:49:05.529Z,80.93
2019-03-28T02:51:36.299Z,80.99
2019-03-28T02:54:07.182Z,81.18
2019-03-28T02:56:37.948Z,81.39
2019-03-28T02:59:08.780Z,81.38
2019-03-28T03:01:40.815Z,81.09
2019-03-28T03:04:11.730Z,81.34
2019-03-28T03:06:42.549Z,81.70
2019-03-28T03:09:13.321Z,81.55
2019-03-28T03:11:44.087Z,81.68
2019-03-28T03:14:15.803Z,81.28
2019-03-28T03:16:46.522Z,81.51
2019-03-28T03:19:17.479Z,81.57
2019-03-28T03:21:48.555Z,81.74
2019-03-28T03:24:19.339Z,81.52
2019-03-28T03:26:50.099Z,81.39
2019-03-28T03:29:20.824Z,81.54
2019-03-28T03:31:53.558Z,81.64
2019-03-28T03:34:23.960Z,81.51
2019-03-28T03:36:54.765Z,81.21
2019-03-28T03:39:25.636Z,81.24
2019-03-28T03:41:56.469Z,80.99
2019-03-28T03:44:27.333Z,81.09
2019-03-28T03:46:58.143Z,81.11
2019-03-28T03:49:30.762Z,81.36
2019-03-28T03:52:01.766Z,81.61
2019-03-28T03:54:32.692Z,81.56
2019-03-28T03:57:03.474Z,81.81
2019-03-28T03:59:34.313Z,81.81
2019-03-28T04:02:05.108Z,81.77
2019-03-28T04:04:35.869Z,81.66
2019-03-28T04:07:06.600Z,81.75
2019-03-28T04:09:38.374Z,81.47
2019-03-28T04:12:09.048Z,81.42
2019-03-28T04:14:41.400Z,81.21
2019-03-28T04:17:12.129Z,81.25
2019-03-28T04:19:42.980Z,81.35
2019-03-28T04:22:13.705Z,81.40
2019-03-28T04:24:44.458Z,81.69
2019-03-28T04:27:15.204Z,81.60
2019-03-28T04:29:48.211Z,81.35
2019-03-28T04:32:25.373Z,81.46
2019-03-28T04:34:57.157Z,81.29
2019-03-28T04:37:27.891Z,81.41
2019-03-28T04:39:58.601Z,81.36
2019-03-28T04:42:29.358Z,81.12
2019-03-28T04:45:00.270Z,81.24
2019-03-28T04:47:31.233Z,81.14
2019-03-28T04:50:08.185Z,81.08
2019-03-28T04:52:39.217Z,80.80
2019-03-28T04:55:10.048Z,80.73
2019-03-28T04:57:41.290Z,80.92
2019-03-28T05:00:14.511Z,81.04
2019-03-28T05:02:48.329Z,81.23
2019-03-28T05:05:19.053Z,81.21
2019-03-28T05:07:49.797Z,81.34
2019-03-28T05:10:21.993Z,80.73
2019-03-28T05:12:56.396Z,80.88
2019-03-28T05:15:27.179Z,80.70
2019-03-28T05:18:01.084Z,80.57
2019-03-28T05:20:34.047Z,81.00
2019-03-28T05:23:08.461Z,80.75
2019-03-28T05:25:39.195Z,80.92
2019-03-28T05:28:12.227Z,81.07
2019-03-28T05:30:45.231Z,81.33
2019-03-28T05:33:18.008Z,81.25
2019-03-28T05:35:50.445Z,81.11
2019-03-28T05:38:21.284Z,80.92
2019-03-28T05:40:52.073Z,80.74
2019-03-28T05:43:22.786Z,81.06
2019-03-28T05:45:53.542Z,80.35
2019-03-28T05:48:26.243Z,80.54
2019-03-28T05:50:59.183Z,80.21
2019-03-28T05:53:29.965Z,80.11
2019-03-28T05:56:01.715Z,80.12
2019-03-28T05:58:32.492Z,79.87
2019-03-28T06:01:03.318Z,79.93
2019-03-28T06:03:34.167Z,79.69
2019-03-28T06:06:05.775Z,79.67
2019-03-28T06:08:37.743Z,79.34
2019-03-28T06:11:08.480Z,79.20
2019-03-28T06:13:39.384Z,79.09
2019-03-28T06:16:10.134Z,79.01
2019-03-28T06:18:40.930Z,78.74
2019-03-28T06:21:11.694Z,78.72
2019-03-28T06:23:42.511Z,78.14
2019-03-28T06:26:13.306Z,77.72
2019-03-28T06:28:44.105Z,77.64
2019-03-28T06:31:14.823Z,77.78
2019-03-28T06:33:45.689Z,77.76
2019-03-28T06:36:16.433Z,77.67
2019-03-28T06:38:47.159Z,77.68
2019-03-28T06:41:17.910Z,77.16
2019-03-28T06:43:49.735Z,77.20
2019-03-28T06:46:20.459Z,76.93
2019-03-28T06:48:51.287Z,77.05
2019-03-28T06:51:22.106Z,76.69
2019-03-28T06:53:52.865Z,77.04
2019-03-28T06:56:25.448Z,76.60
2019-03-28T06:58:56.169Z,76.87
2019-03-28T07:01:26.924Z,76.38
2019-03-28T07:03:57.683Z,76.29
2019-03-28T07:06:28.413Z,76.06
2019-03-28T07:08:59.198Z,75.78
2019-03-28T07:11:30.014Z,75.46
2019-03-28T07:14:00.787Z,74.79
2019-03-28T07:16:31.552Z,74.54
2019-03-28T07:19:02.320Z,75.03
2019-03-28T07:21:33.049Z,75.08
2019-03-28T07:24:04.259Z,75.27
2019-03-28T07:26:34.967Z,75.73
2019-03-28T07:29:05.762Z,76.13
2019-03-28T07:31:36.520Z,75.75
2019-03-28T07:34:10.124Z,76.12
2019-03-28T07:36:40.905Z,76.17
2019-03-28T07:39:11.656Z,76.05
2019-03-28T07:41:42.451Z,75.92
2019-03-28T07:44:13.193Z,76.28
2019-03-28T07:46:44.059Z,76.01
2019-03-28T07:49:14.857Z,75.81
2019-03-28T07:51:45.581Z,75.44
2019-03-28T07:54:16.466Z,74.59
2019-03-28T07:56:47.240Z,74.28
2019-03-28T07:59:18.273Z,73.80
2019-03-28T08:01:49.054Z,73.88
2019-03-28T08:04:21.084Z,73.99
2019-03-28T08:06:51.939Z,73.92
2019-03-28T08:09:35.739Z,73.91
2019-03-28T08:11:55.157Z,73.70
2019-03-28T08:14:25.883Z,73.40
2019-03-28T08:16:56.648Z,73.54
2019-03-28T08:19:27.332Z,74.73
2019-03-28T08:21:58.151Z,74.36
2019-03-28T08:24:28.865Z,74.72
2019-03-28T08:26:59.602Z,74.46
2019-03-28T08:29:30.466Z,74.30
2019-03-28T08:32:01.715Z,74.37
2019-03-28T08:34:32.476Z,73.96
2019-03-28T08:37:03.687Z,73.20
2019-03-28T08:39:34.652Z,73.05
2019-03-28T08:42:05.454Z,73.28
2019-03-28T08:44:36.242Z,72.77
2019-03-28T08:47:07.135Z,72.33
2019-03-28T08:49:38.202Z,72.12
2019-03-28T08:52:11.616Z,70.85
2019-03-28T08:54:41.874Z,70.32
2019-03-28T08:57:13.752Z,70.59
2019-03-28T08:59:44.808Z,70.14
2019-03-28T09:02:15.572Z,69.40
2019-03-28T09:04:47.328Z,69.48
2019-03-28T09:07:18.128Z,68.65
2019-03-28T09:09:49.108Z,68.41
2019-03-28T09:12:19.897Z,68.39
2019-03-28T09:14:50.671Z,67.76
2019-03-28T09:17:23.849Z,67.64
2019-03-28T09:19:53.836Z,67.16
2019-03-28T09:22:25.877Z,66.68
2019-03-28T09:24:57.922Z,65.59
2019-03-28T09:27:28.708Z,65.89
2019-03-28T09:29:59.537Z,64.95
2019-03-28T09:32:30.637Z,64.47
2019-03-28T09:35:01.429Z,65.09
2019-03-28T09:37:32.169Z,63.60
2019-03-28T09:40:02.935Z,64.55
2019-03-28T09:42:33.705Z,64.06
2019-03-28T09:45:04.947Z,62.87
2019-03-28T09:47:35.781Z,63.57
2019-03-28T09:50:07.080Z,63.49
2019-03-28T09:52:37.808Z,62.52
2019-03-28T09:55:08.566Z,60.72
2019-03-28T09:57:39.307Z,60.42
2019-03-28T10:00:11.480Z,59.76
2019-03-28T10:02:44.086Z,59.84
2019-03-28T10:05:15.819Z,60.04
2019-03-28T10:07:46.605Z,59.82
2019-03-28T10:10:17.346Z,59.28
2019-03-28T10:12:48.139Z,59.65
2019-03-28T10:15:18.966Z,60.29
2019-03-28T10:17:49.749Z,60.47
2019-03-28T10:20:20.433Z,58.88
2019-03-28T10:22:51.238Z,58.32
2019-03-28T10:25:21.989Z,57.08
2019-03-28T10:27:52.733Z,54.41
2019-03-28T10:30:45.784Z,55.23
2019-03-28T10:33:16.492Z,55.38
2019-03-28T10:35:47.237Z,53.70
2019-03-28T10:38:17.951Z,52.82
2019-03-28T10:40:48.699Z,51.89
2019-03-28T10:43:19.454Z,52.96
2019-03-28T10:45:50.199Z,54.74
2019-03-28T10:48:23.444Z,54.22
2019-03-28T10:50:53.394Z,54.17
2019-03-28T10:53:24.132Z,54.50
2019-03-28T10:55:54.997Z,53.62
2019-03-28T10:58:25.747Z,52.41
2019-03-28T11:00:56.723Z,53.04
2019-03-28T11:03:27.475Z,52.31
2019-03-28T11:05:58.231Z,51.99
2019-03-28T11:08:29.045Z,52.54
2019-03-28T11:10:59.941Z,53.31
2019-03-28T11:13:30.779Z,53.99
2019-03-28T11:16:01.668Z,53.49
2019-03-28T11:18:32.576Z,53.04
2019-03-28T11:21:03.338Z,53.46
2019-03-28T11:23:34.299Z,52.17
2019-03-28T11:26:05.441Z,51.78
2019-03-28T11:28:36.197Z,51.49
2019-03-28T11:31:07.959Z,52.54
2019-03-28T11:33:38.945Z,53.22
2019-03-28T11:36:09.639Z,53.71
2019-03-28T11:38:40.433Z,53.17
2019-03-28T11:41:11.169Z,54.06
2019-03-28T11:43:42.081Z,54.74
2019-03-28T11:46:13.725Z,54.54
2019-03-28T11:48:44.542Z,51.69
2019-03-28T11:51:15.335Z,50.85
2019-03-28T11:53:46.240Z,50.05
2019-03-28T11:56:17.043Z,51.06
2019-03-28T11:58:47.840Z,51.83
2019-03-28T12:01:18.566Z,52.19
2019-03-28T12:03:49.335Z,52.86
2019-03-28T12:06:20.059Z,53.10
2019-03-28T12:08:50.785Z,54.02
2019-03-28T12:11:21.446Z,54.05
2019-03-28T12:13:52.185Z,53.98
2019-03-28T12:16:22.936Z,54.51
2019-03-28T12:18:53.728Z,53.91
2019-03-28T12:21:26.836Z,54.53
2019-03-28T12:23:57.646Z,52.12
2019-03-28T12:26:29.596Z,51.40
2019-03-28T12:29:00.709Z,51.13
2019-03-28T12:31:33.179Z,51.78
2019-03-28T12:34:04.066Z,52.71
2019-03-28T12:36:34.787Z,53.25
2019-03-28T12:39:07.291Z,53.86
2019-03-28T12:41:37.980Z,54.77
2019-03-28T12:44:08.884Z,54.00
2019-03-28T12:46:39.542Z,53.96
2019-03-28T12:49:10.475Z,53.16
2019-03-28T12:51:41.134Z,52.71
2019-03-28T12:54:11.918Z,51.58
2019-03-28T12:56:42.643Z,51.32
2019-03-28T12:59:14.067Z,50.02
2019-03-28T13:01:45.281Z,49.99
2019-03-28T13:04:16.116Z,50.56
2019-03-28T13:06:46.913Z,49.92
2019-03-28T13:09:17.784Z,49.33
2019-03-28T13:11:48.562Z,49.54
2019-03-28T13:14:19.366Z,49.16
2019-03-28T13:16:51.772Z,49.26
2019-03-28T13:19:27.447Z,49.38
2019-03-28T13:21:58.357Z,49.17
2019-03-28T13:24:29.110Z,49.86
2019-03-28T13:26:59.840Z,49.75
2019-03-28T13:29:30.615Z,49.80
2019-03-28T13:32:01.247Z,50.09
2019-03-28T13:34:31.981Z,50.59
2019-03-28T13:37:02.666Z,50.76
2019-03-28T13:39:33.390Z,51.07
2019-03-28T13:42:04.057Z,51.03
2019-03-28T13:44:34.754Z,51.00
2019-03-28T13:47:05.427Z,51.25
2019-03-28T13:49:36.156Z,51.77
2019-03-28T13:52:06.846Z,51.85
2019-03-28T13:54:37.660Z,52.50
2019-03-28T13:57:08.361Z,53.92
2019-03-28T13:59:39.099Z,53.23
2019-03-28T14:02:09.852Z,54.40
2019-03-28T14:04:40.624Z,54.98
2019-03-28T14:07:13.269Z,54.66
2019-03-28T14:09:44.024Z,55.23
2019-03-28T14:12:14.805Z,55.56
2019-03-28T14:14:45.534Z,55.80
2019-03-28T14:17:16.321Z,56.09
2019-03-28T14:19:47.031Z,56.31
2019-03-28T14:22:18.253Z,55.95
2019-03-28T14:24:49.066Z,56.21
2019-03-28T14:27:19.799Z,55.73
2019-03-28T14:29:50.510Z,56.30
2019-03-28T14:32:21.162Z,56.44
2019-03-28T14:34:51.865Z,56.01
2019-03-28T14:37:22.506Z,55.98
2019-03-28T14:39:53.305Z,56.09
2019-03-28T14:42:23.990Z,55.89
2019-03-28T14:44:54.683Z,56.81
2019-03-28T14:47:25.469Z,56.14
2019-03-28T14:49:56.483Z,55.78
2019-03-28T14:52:28.659Z,55.74
2019-03-28T14:55:01.628Z,55.43
2019-03-28T14:57:32.995Z,55.70
2019-03-28T15:00:05.570Z,55.31
2019-03-28T15:02:36.396Z,54.80
2019-03-28T15:05:07.379Z,54.33
2019-03-28T15:07:38.109Z,54.31
2019-03-28T15:10:09.074Z,54.72
2019-03-28T15:12:39.745Z,53.46
2019-03-28T15:15:10.907Z,53.38
2019-03-28T15:17:44.797Z,53.16
2019-03-28T15:20:13.950Z,53.36
2019-03-28T15:22:44.627Z,53.67
2019-03-28T15:25:15.314Z,53.96
2019-03-28T15:27:46.048Z,53.44
2019-03-28T15:30:18.114Z,53.45
2019-03-28T15:32:48.860Z,53.88
2019-03-28T15:35:19.501Z,55.08
2019-03-28T15:37:50.168Z,55.41
2019-03-28T15:40:21.018Z,55.92
2019-03-28T15:42:51.874Z,56.47
2019-03-28T15:45:22.545Z,56.58
2019-03-28T15:47:53.291Z,56.78
2019-03-28T15:50:24.474Z,56.74
2019-03-28T15:52:57.583Z,57.15
2019-03-28T15:55:30.787Z,57.65
2019-03-28T15:58:07.256Z,57.48
2019-03-28T16:00:38.174Z,57.60
2019-03-28T16:03:08.955Z,57.20
2019-03-28T16:05:40.598Z,57.43
2019-03-28T16:08:11.336Z,57.31
2019-03-28T16:10:44.093Z,57.45
2019-03-28T16:13:14.770Z,57.62
2019-03-28T16:15:46.852Z,58.00
2019-03-28T16:18:21.939Z,58.14
2019-03-28T16:20:56.703Z,57.96
2019-03-28T16:23:29.571Z,58.26
2019-03-28T16:26:02.479Z,58.48
2019-03-28T16:28:33.240Z,59.02
2019-03-28T16:31:04.191Z,58.71
2019-03-28T16:33:37.858Z,59.15
2019-03-28T16:36:09.228Z,59.50
2019-03-28T16:38:39.945Z,59.36
2019-03-28T16:41:10.749Z,59.55
2019-03-28T16:43:42.147Z,59.53
2019-03-28T16:46:12.874Z,59.63
2019-03-28T16:48:43.700Z,60.43
2019-03-28T16:51:17.388Z,60.49
2019-03-28T16:53:46.995Z,60.56
2019-03-28T16:56:19.188Z,60.77
2019-03-28T16:58:50.209Z,61.14
2019-03-28T17:01:20.937Z,60.93
2019-03-28T17:03:52.382Z,60.50
2019-03-28T17:06:26.330Z,61.03
2019-03-28T17:09:02.859Z,61.25
2019-03-28T17:11:34.760Z,61.21
2019-03-28T17:14:05.784Z,61.00
2019-03-28T17:16:36.471Z,60.99
2019-03-28T17:19:07.310Z,61.13
2019-03-28T17:21:38.004Z,61.33
2019-03-28T17:24:08.707Z,61.75
2019-03-28T17:26:39.405Z,61.63
2019-03-28T17:29:10.256Z,61.79
2019-03-28T17:31:40.942Z,62.10
2019-03-28T17:34:13.891Z,61.97
2019-03-28T17:36:46.381Z,62.03
2019-03-28T17:39:19.003Z,62.57
2019-03-28T17:41:49.671Z,63.84
2019-03-28T17:44:20.497Z,65.31
2019-03-28T17:46:51.207Z,66.19
2019-03-28T17:49:22.057Z,66.87
2019-03-28T17:51:56.965Z,67.81
2019-03-28T17:54:30.226Z,68.25
2019-03-28T17:57:02.687Z,68.63
2019-03-28T17:59:34.450Z,68.94
2019-03-28T18:02:05.181Z,68.95
2019-03-28T18:04:47.454Z,68.66
2019-03-28T18:07:08.421Z,68.57
2019-03-28T18:09:39.132Z,68.71
2019-03-28T18:12:09.792Z,68.77
2019-03-28T18:14:40.523Z,68.83
2019-03-28T18:17:11.809Z,68.99
2019-03-28T18:19:42.681Z,68.98
2019-03-28T18:22:13.470Z,68.78
2019-03-28T18:24:44.115Z,68.64
2019-03-28T18:27:15.116Z,68.10
2019-03-28T18:29:45.919Z,68.19
2019-03-28T18:32:19.108Z,68.33
2019-03-28T18:35:04.634Z,68.21
2019-03-28T18:37:23.347Z,68.38
2019-03-28T18:39:57.548Z,68.33
2019-03-28T18:42:28.320Z,68.45
2019-03-28T18:45:00.573Z,68.13
2019-03-28T18:47:32.393Z,68.43
2019-03-28T18:50:03.987Z,68.14
2019-03-28T18:52:35.049Z,68.41
2019-03-28T18:55:06.179Z,68.39
2019-03-28T18:57:39.693Z,68.42
2019-03-28T19:00:10.892Z,68.82
2019-03-28T19:02:41.859Z,68.86
2019-03-28T19:05:19.564Z,68.46
2019-03-28T19:07:45.035Z,68.25
2019-03-28T19:10:16.089Z,68.29
2019-03-28T19:12:48.233Z,67.95
2019-03-28T19:15:20.648Z,68.05
2019-03-28T19:17:51.360Z,68.24
2019-03-28T19:20:23.199Z,68.21
2019-03-28T19:22:53.930Z,68.46
2019-03-28T19:25:24.676Z,68.57
2019-03-28T19:27:55.712Z,68.90
2019-03-28T19:30:34.280Z,68.72
2019-03-28T19:33:07.060Z,68.59
2019-03-28T19:35:39.604Z,68.50
2019-03-28T19:38:11.976Z,68.73
2019-03-28T19:40:46.837Z,69.04
2019-03-28T19:43:20.792Z,69.44
2019-03-28T19:45:51.606Z,69.53
2019-03-28T19:48:22.320Z,69.51
2019-03-28T19:50:53.025Z,69.49
2019-03-28T19:53:27.012Z,69.68
2019-03-28T19:55:58.006Z,69.66
2019-03-28T19:58:35.105Z,69.58
2019-03-28T20:01:05.698Z,69.60
2019-03-28T20:03:36.399Z,69.75
2019-03-28T20:06:21.317Z,69.80
2019-03-28T20:08:40.822Z,70.29
2019-03-28T20:11:11.601Z,70.51
2019-03-28T20:13:42.388Z,70.66
2019-03-28T20:16:16.398Z,70.80
2019-03-28T20:18:46.827Z,71.00
2019-03-28T20:21:17.560Z,71.00
2019-03-28T20:23:51.078Z,71.11
2019-03-28T20:26:24.988Z,70.93
2019-03-28T20:29:05.580Z,70.76
2019-03-28T20:31:37.494Z,70.65
2019-03-28T20:34:08.690Z,70.68
2019-03-28T20:36:44.373Z,71.08
2019-03-28T20:39:16.907Z,71.16
2019-03-28T20:41:47.555Z,71.15
2019-03-28T20:44:20.496Z,71.19
2019-03-28T20:46:58.667Z,71.11
2019-03-28T20:49:30.915Z,71.20
2019-03-28T20:52:01.716Z,71.46
2019-03-28T20:54:32.428Z,71.35
2019-03-28T20:57:03.084Z,71.81
2019-03-28T20:59:36.095Z,71.74
2019-03-28T21:02:07.982Z,72.16
2019-03-28T21:04:39.501Z,72.28
2019-03-28T21:07:10.268Z,72.24
2019-03-28T21:09:42.593Z,72.22
2019-03-28T21:12:13.243Z,72.44
2019-03-28T21:14:45.190Z,72.37
2019-03-28T21:17:15.841Z,72.29
2019-03-28T21:19:47.121Z,71.84
2019-03-28T21:22:17.914Z,71.52
2019-03-28T21:24:48.632Z,71.30
2019-03-28T21:27:20.817Z,70.97
2019-03-28T21:29:51.690Z,70.79
2019-03-28T21:32:22.467Z,71.34
2019-03-28T21:34:56.324Z,70.85
2019-03-28T21:37:25.812Z,71.48
2019-03-28T21:39:56.653Z,71.61
2019-03-28T21:42:32.206Z,71.37
2019-03-28T21:45:02.956Z,71.29
2019-03-28T21:47:35.313Z,71.71
2019-03-28T21:50:06.325Z,71.36
2019-03-28T21:52:38.190Z,71.59
2019-03-28T21:55:11.503Z,71.44
2019-03-28T21:57:43.967Z,71.22
2019-03-28T22:00:15.014Z,70.88
2019-03-28T22:02:45.667Z,70.81
2019-03-28T22:05:17.342Z,70.84
2019-03-28T22:07:48.130Z,70.76
2019-03-28T22:10:18.864Z,70.98
2019-03-28T22:12:49.601Z,71.00
2019-03-28T22:15:23.433Z,70.99
2019-03-28T22:17:54.093Z,71.38
2019-03-28T22:20:24.875Z,71.10
2019-03-28T22:22:55.943Z,71.34
2019-03-28T22:25:26.653Z,71.18
2019-03-28T22:27:57.496Z,71.04
2019-03-28T22:30:28.204Z,71.21
2019-03-28T22:32:59.073Z,71.66
2019-03-28T22:35:29.823Z,71.52
2019-03-28T22:38:00.533Z,71.55
2019-03-28T22:40:34.988Z,71.66
2019-03-28T22:43:07.020Z,71.89
2019-03-28T22:45:38.063Z,71.97
2019-03-28T22:48:10.928Z,72.18
2019-03-28T22:50:41.396Z,71.92
2019-03-28T22:53:12.242Z,72.19
2019-03-28T22:55:43.254Z,72.01
2019-03-28T22:58:13.996Z,71.63
2019-03-28T23:00:45.716Z,71.71
2019-03-28T23:03:18.549Z,71.62
2019-03-28T23:05:49.359Z,71.43
2019-03-28T23:08:20.329Z,71.45
2019-03-28T23:10:51.083Z,71.51
2019-03-28T23:13:22.859Z,71.44
2019-03-28T23:15:55.336Z,71.44
2019-03-28T23:18:26.945Z,71.95
2019-03-28T23:20:57.791Z,71.90
2019-03-28T23:23:30.229Z,71.95
2019-03-28T23:26:01.013Z,72.01
2019-03-28T23:28:31.840Z,71.79
2019-03-28T23:31:02.541Z,71.75
2019-03-28T23:33:36.045Z,72.11
2019-03-28T23:36:07.031Z,72.09
2019-03-28T23:38:40.253Z,72.05
2019-03-28T23:41:11.500Z,72.48
2019-03-28T23:43:42.173Z,72.44
2019-03-28T23:46:14.397Z,72.18
2019-03-28T23:48:45.564Z,72.14
2019-03-28T23:51:17.259Z,72.40
2019-03-28T23:53:50.770Z,72.66
2019-03-28T23:56:26.665Z,72.47
2019-03-28T23:58:57.687Z,72.31
